createdAt,value
2019-03-11T00:00:25.557Z,100196.84
2019-03-11T00:02:53.835Z,100201.66
2019-03-11T00:05:22.104Z,100204.70
2019-03-11T00:07:50.369Z,100204.12
2019-03-11T00:10:18.609Z,100209.06
2019-03-11T00:12:46.895Z,100198.23
2019-03-11T00:15:15.154Z,100197.34
2019-03-11T00:17:43.412Z,100193.19
2019-03-11T00:20:12.061Z,100194.09
2019-03-11T00:22:40.311Z,100196.15
2019-03-11T00:25:08.567Z,100199.22
2019-03-11T00:27:36.833Z,100188.64
2019-03-11T00:30:14.942Z,100194.11
2019-03-11T00:32:43.148Z,100206.13
2019-03-11T00:35:11.419Z,100199.83
2019-03-11T00:37:39.700Z,100187.15
2019-03-11T00:40:12.844Z,100189.55
2019-03-11T00:42:41.109Z,100185.91
2019-03-11T00:45:12.179Z,100185.91
2019-03-11T00:47:40.443Z,100190.63
2019-03-11T00:50:10.460Z,100182.78
2019-03-11T00:52:38.802Z,100188.55
2019-03-11T00:55:09.603Z,100185.50
2019-03-11T00:57:37.892Z,100176.91
2019-03-11T01:00:32.610Z,100187.64
2019-03-11T01:03:00.871Z,100186.70
2019-03-11T01:05:29.193Z,100188.16
2019-03-11T01:07:57.490Z,100190.84
2019-03-11T01:10:25.835Z,100182.97
2019-03-11T01:12:54.110Z,100185.77
2019-03-11T01:15:22.359Z,100184.66
2019-03-11T01:17:50.639Z,100185.95
2019-03-11T01:20:18.891Z,100192.31
2019-03-11T01:22:47.154Z,100187.37
2019-03-11T01:25:15.588Z,100179.94
2019-03-11T01:27:43.842Z,100176.52
2019-03-11T01:30:13.942Z,100176.07
2019-03-11T01:32:44.160Z,100173.05
2019-03-11T01:35:12.491Z,100177.98
2019-03-11T01:37:40.744Z,100169.66
2019-03-11T01:40:16.794Z,100170.11
2019-03-11T01:42:45.054Z,100173.89
2019-03-11T01:45:15.534Z,100172.34
2019-03-11T01:47:43.788Z,100167.44
2019-03-11T01:50:14.560Z,100166.20
2019-03-11T01:52:42.882Z,100164.99
2019-03-11T01:55:12.706Z,100169.39
2019-03-11T01:57:40.960Z,100160.18
2019-03-11T02:00:15.115Z,100161.26
2019-03-11T02:02:43.382Z,100158.77
2019-03-11T02:05:11.708Z,100155.28
2019-03-11T02:07:39.975Z,100141.63
2019-03-11T02:10:11.137Z,100147.98
2019-03-11T02:12:39.400Z,100138.67
2019-03-11T02:15:10.464Z,100144.94
2019-03-11T02:17:38.779Z,100143.97
2019-03-11T02:20:10.029Z,100136.23
2019-03-11T02:22:38.318Z,100126.00
2019-03-11T02:25:07.534Z,100137.88
2019-03-11T02:27:35.871Z,100126.67
2019-03-11T02:30:06.467Z,100123.09
2019-03-11T02:32:34.731Z,100124.71
2019-03-11T02:35:02.994Z,100124.36
2019-03-11T02:37:31.256Z,100114.94
2019-03-11T02:39:59.521Z,100115.91
2019-03-11T02:42:27.768Z,100105.33
2019-03-11T02:44:56.040Z,100103.33
2019-03-11T02:47:24.297Z,100098.80
2019-03-11T02:49:52.564Z,100105.11
2019-03-11T02:52:20.838Z,100097.46
2019-03-11T02:54:50.649Z,100098.65
2019-03-11T02:57:18.917Z,100094.78
2019-03-11T02:59:47.184Z,100090.02
2019-03-11T03:02:17.086Z,100083.22
2019-03-11T03:04:46.983Z,100071.66
2019-03-11T03:07:15.257Z,100071.58
2019-03-11T03:09:46.428Z,100064.73
2019-03-11T03:12:14.693Z,100063.39
2019-03-11T03:14:42.949Z,100069.09
2019-03-11T03:17:11.218Z,100052.52
2019-03-11T03:19:39.482Z,100055.54
2019-03-11T03:22:07.750Z,100051.75
2019-03-11T03:24:36.008Z,100044.95
2019-03-11T03:27:04.266Z,100048.77
2019-03-11T03:29:32.542Z,100045.57
2019-03-11T03:32:00.843Z,100043.80
2019-03-11T03:34:29.088Z,100045.34
2019-03-11T03:36:57.321Z,100034.15
2019-03-11T03:39:25.587Z,100042.02
2019-03-11T03:41:53.852Z,100030.23
2019-03-11T03:44:22.135Z,100031.48
2019-03-11T03:46:50.398Z,100021.61
2019-03-11T03:49:18.672Z,100028.72
2019-03-11T03:51:46.936Z,100026.18
2019-03-11T03:54:15.190Z,100027.55
2019-03-11T03:56:43.454Z,100029.34
2019-03-11T03:59:11.706Z,100033.69
2019-03-11T04:01:39.974Z,100031.69
2019-03-11T04:04:08.231Z,100020.13
2019-03-11T04:06:36.549Z,100017.91
2019-03-11T04:09:05.119Z,100013.73
2019-03-11T04:11:33.395Z,100021.59
2019-03-11T04:14:02.651Z,100022.29
2019-03-11T04:16:30.932Z,100022.29
2019-03-11T04:18:59.220Z,100030.41
2019-03-11T04:21:27.466Z,100030.77
2019-03-11T04:23:55.729Z,100030.58
2019-03-11T04:26:27.414Z,100035.34
2019-03-11T04:28:55.925Z,100035.05
2019-03-11T04:31:24.206Z,100028.30
2019-03-11T04:33:52.538Z,100038.95
2019-03-11T04:36:20.793Z,100031.27
2019-03-11T04:38:49.068Z,100040.00
2019-03-11T04:41:17.325Z,100040.48
2019-03-11T04:43:45.589Z,100040.89
2019-03-11T04:46:13.863Z,100045.80
2019-03-11T04:48:42.133Z,100045.75
2019-03-11T04:51:22.491Z,100047.28
2019-03-11T04:53:50.761Z,100047.61
2019-03-11T04:56:19.017Z,100048.05
2019-03-11T04:58:47.320Z,100048.85
2019-03-11T05:01:15.594Z,100045.83
2019-03-11T05:03:46.221Z,100056.06
2019-03-11T05:06:14.681Z,100060.05
2019-03-11T05:08:45.850Z,100056.98
2019-03-11T05:11:14.162Z,100063.11
2019-03-11T05:13:42.378Z,100073.73
2019-03-11T05:16:10.648Z,100075.17
2019-03-11T05:18:38.928Z,100066.64
2019-03-11T05:21:07.189Z,100068.08
2019-03-11T05:23:35.504Z,100071.94
2019-03-11T05:26:03.776Z,100072.42
2019-03-11T05:28:33.186Z,100083.56
2019-03-11T05:31:01.492Z,100078.34
2019-03-11T05:33:29.763Z,100082.20
2019-03-11T05:35:58.020Z,100088.94
2019-03-11T05:38:27.802Z,100091.15
2019-03-11T05:40:56.072Z,100090.78
2019-03-11T05:43:24.348Z,100098.58
2019-03-11T05:45:52.615Z,100088.61
2019-03-11T05:48:20.978Z,100091.54
2019-03-11T05:50:49.221Z,100088.09
2019-03-11T05:53:18.183Z,100085.23
2019-03-11T05:55:47.545Z,100079.46
2019-03-11T05:58:15.744Z,100078.47
2019-03-11T06:00:44.013Z,100074.68
2019-03-11T06:03:12.281Z,100083.53
2019-03-11T06:05:40.552Z,100074.49
2019-03-11T06:08:18.543Z,100072.77
2019-03-11T06:10:46.796Z,100075.70
2019-03-11T06:13:15.046Z,100080.38
2019-03-11T06:15:43.320Z,100076.14
2019-03-11T06:18:11.579Z,100082.72
2019-03-11T06:20:41.488Z,100077.94
2019-03-11T06:23:11.396Z,100077.90
2019-03-11T06:25:39.687Z,100083.38
2019-03-11T06:28:07.942Z,100083.89
2019-03-11T06:30:36.380Z,100080.72
2019-03-11T06:33:04.910Z,100088.25
2019-03-11T06:35:33.190Z,100096.59
2019-03-11T06:38:01.463Z,100094.73
2019-03-11T06:40:29.734Z,100097.60
2019-03-11T06:42:57.995Z,100098.24
2019-03-11T06:45:26.270Z,100093.05
2019-03-11T06:47:54.521Z,100094.58
2019-03-11T06:50:22.787Z,100108.19
2019-03-11T06:52:51.048Z,100117.93
2019-03-11T06:55:19.320Z,100118.98
2019-03-11T06:57:47.591Z,100116.84
2019-03-11T07:00:21.745Z,100118.78
2019-03-11T07:02:50.017Z,100124.05
2019-03-11T07:18:15.015Z,100155.08
2019-03-11T07:20:43.256Z,100171.25
2019-03-11T07:26:03.275Z,100192.63
2019-03-11T07:28:31.559Z,100194.39
2019-03-11T07:33:58.776Z,100206.98
2019-03-11T07:36:28.754Z,100191.77
2019-03-11T07:38:57.024Z,100191.46
2019-03-11T07:44:27.061Z,100205.04
2019-03-11T07:46:55.328Z,100204.06
2019-03-11T07:49:24.510Z,100206.47
2019-03-11T07:51:52.776Z,100208.78
2019-03-11T07:54:21.040Z,100207.87
2019-03-11T07:56:49.286Z,100205.23
2019-03-11T07:59:17.556Z,100216.06
2019-03-11T08:01:45.818Z,100211.92
2019-03-11T08:04:14.082Z,100218.80
2019-03-11T08:06:42.343Z,100219.14
2019-03-11T08:09:10.623Z,100234.27
2019-03-11T08:11:38.886Z,100239.83
2019-03-11T08:14:07.149Z,100250.55
2019-03-11T08:16:35.432Z,100248.67
2019-03-11T08:19:03.685Z,100253.59
2019-03-11T08:21:31.951Z,100257.27
2019-03-11T08:24:00.198Z,100268.28
2019-03-11T08:26:28.471Z,100269.28
2019-03-11T08:28:56.728Z,100275.41
2019-03-11T08:31:25.020Z,100269.28
2019-03-11T08:33:53.297Z,100256.83
2019-03-11T08:36:21.603Z,100261.32
2019-03-11T08:41:38.825Z,100252.22
2019-03-11T08:44:07.078Z,100261.53
2019-03-11T08:46:35.340Z,100265.36
2019-03-11T08:49:03.599Z,100263.30
2019-03-11T08:51:31.866Z,100265.33
2019-03-11T08:54:00.133Z,100262.16
2019-03-11T08:56:28.394Z,100267.61
2019-03-11T08:58:56.666Z,100267.27
2019-03-11T09:01:24.933Z,100271.80
2019-03-11T09:03:53.197Z,100276.59
2019-03-11T09:09:32.245Z,100280.20
2019-03-11T09:12:00.507Z,100282.95
2019-03-11T09:14:28.778Z,100282.76
2019-03-11T09:16:57.036Z,100293.16
2019-03-11T09:19:25.300Z,100298.65
2019-03-11T09:21:53.579Z,100301.29
2019-03-11T09:24:21.855Z,100305.18
2019-03-11T09:26:50.101Z,100309.79
2019-03-11T09:29:18.621Z,100310.88
2019-03-11T09:31:46.889Z,100311.45
2019-03-11T09:34:31.759Z,100312.61
2019-03-11T09:37:00.086Z,100318.34
2019-03-11T09:39:28.342Z,100317.69
2019-03-11T09:41:56.610Z,100318.47
2019-03-11T09:47:23.845Z,100317.66
2019-03-11T09:53:07.746Z,100324.27
2019-03-11T09:55:36.010Z,100325.45
2019-03-11T09:58:04.688Z,100321.71
2019-03-11T10:04:01.609Z,100327.05
2019-03-11T10:06:29.875Z,100324.08
2019-03-11T10:08:58.156Z,100327.12
2019-03-11T10:11:26.426Z,100323.35
2019-03-11T10:13:54.709Z,100321.81
2019-03-11T10:16:22.963Z,100329.44
2019-03-11T10:18:51.249Z,100336.29
2019-03-11T10:24:30.849Z,100337.16
2019-03-11T10:26:59.104Z,100340.98
2019-03-11T10:32:16.318Z,100349.86
2019-03-11T10:34:44.587Z,100353.69
2019-03-11T10:43:51.348Z,100354.45
2019-03-11T10:46:19.585Z,100344.30
2019-03-11T10:48:47.878Z,100351.61
2019-03-11T10:51:16.136Z,100350.77
2019-03-11T10:53:44.403Z,100356.20
2019-03-11T10:56:12.666Z,100355.48
2019-03-11T10:58:40.942Z,100359.28
2019-03-11T11:01:09.952Z,100361.94
2019-03-11T11:03:39.194Z,100364.16
2019-03-11T11:06:07.440Z,100368.84
2019-03-11T11:08:35.696Z,100370.38
2019-03-11T11:14:10.405Z,100375.80
2019-03-11T11:16:38.673Z,100375.83
2019-03-11T11:22:18.293Z,100383.32
2019-03-11T11:24:46.564Z,100382.73
2019-03-11T11:27:14.826Z,100382.23
2019-03-11T11:29:43.079Z,100386.67
2019-03-11T11:32:11.343Z,100384.91
2019-03-11T11:37:36.168Z,100385.76
2019-03-11T11:43:25.601Z,100388.61
2019-03-11T11:45:53.855Z,100388.75
2019-03-11T11:48:22.137Z,100393.30
2019-03-11T11:53:59.870Z,100393.97
2019-03-11T11:56:28.134Z,100399.74
2019-03-11T11:58:56.416Z,100400.19
2019-03-11T12:01:24.683Z,100398.47
2019-03-11T12:03:52.942Z,100404.09
2019-03-11T12:06:21.200Z,100412.75
2019-03-11T12:08:49.454Z,100420.53
2019-03-11T12:11:17.718Z,100419.78
2019-03-11T12:13:46.008Z,100430.03
2019-03-11T12:16:14.266Z,100432.63
2019-03-11T12:18:42.531Z,100437.42
2019-03-11T12:24:15.236Z,100433.55
2019-03-11T12:26:43.488Z,100443.84
2019-03-11T12:29:11.754Z,100442.61
2019-03-11T12:31:40.029Z,100442.38
2019-03-11T12:37:17.275Z,100451.04
2019-03-11T12:39:45.545Z,100449.48
2019-03-11T12:42:13.809Z,100448.45
2019-03-11T12:44:42.079Z,100451.48
2019-03-11T12:47:10.352Z,100451.04
2019-03-11T12:49:38.611Z,100454.97
2019-03-11T12:52:06.906Z,100452.41
2019-03-11T12:54:35.168Z,100456.06
2019-03-11T12:57:03.427Z,100456.80
2019-03-11T12:59:31.702Z,100455.70
2019-03-11T13:01:59.965Z,100457.70
2019-03-11T13:04:28.234Z,100466.33
2019-03-11T13:06:56.485Z,100466.41
2019-03-11T13:09:24.788Z,100467.16
2019-03-11T13:11:53.048Z,100472.92
2019-03-11T13:14:21.316Z,100476.72
2019-03-11T13:16:49.598Z,100478.62
2019-03-11T13:19:18.540Z,100480.63
2019-03-11T13:25:14.958Z,100490.70
2019-03-11T13:27:43.217Z,100498.69
2019-03-11T13:33:05.078Z,100499.20
2019-03-11T13:35:33.337Z,100503.26
2019-03-11T13:38:01.602Z,100504.55
2019-03-11T13:40:29.853Z,100506.65
2019-03-11T13:42:58.108Z,100505.70
2019-03-11T13:45:26.569Z,100514.44
2019-03-11T13:47:54.839Z,100512.48
2019-03-11T13:50:23.083Z,100513.81
2019-03-11T13:52:51.359Z,100514.24
2019-03-11T13:55:19.623Z,100518.54
2019-03-11T13:57:47.872Z,100522.49
2019-03-11T14:03:43.502Z,100522.40
2019-03-11T14:06:31.711Z,100524.62
2019-03-11T14:08:59.975Z,100525.86
2019-03-11T14:11:28.253Z,100536.80
2019-03-11T14:13:56.803Z,100531.56
2019-03-11T14:16:25.098Z,100528.63
2019-03-11T14:18:53.374Z,100541.09
2019-03-11T14:21:25.642Z,100547.61
2019-03-11T14:23:51.607Z,100559.00
2019-03-11T14:26:19.863Z,100557.03
2019-03-11T14:28:48.120Z,100561.31
2019-03-11T14:31:16.374Z,100560.56
2019-03-11T14:33:44.627Z,100562.25
2019-03-11T14:36:12.917Z,100569.84
2019-03-11T14:38:41.169Z,100566.00
2019-03-11T14:41:09.440Z,100577.23
2019-03-11T14:43:37.692Z,100573.22
2019-03-11T14:46:05.953Z,100585.83
2019-03-11T14:48:34.221Z,100588.85
2019-03-11T14:51:02.488Z,100595.94
2019-03-11T14:53:30.732Z,100588.80
2019-03-11T14:55:58.990Z,100601.23
2019-03-11T14:58:29.678Z,100595.38
2019-03-11T15:00:57.230Z,100600.18
2019-03-11T15:03:25.486Z,100602.59
2019-03-11T15:05:54.707Z,100609.31
2019-03-11T15:08:23.754Z,100612.41
2019-03-11T15:10:51.978Z,100618.95
2019-03-11T15:13:20.274Z,100626.84
2019-03-11T15:15:48.523Z,100628.54
2019-03-11T15:21:35.509Z,100632.53
2019-03-11T15:24:03.755Z,100635.97
2019-03-11T15:26:32.005Z,100639.86
2019-03-11T15:29:00.269Z,100661.86
2019-03-11T15:31:28.520Z,100658.47
2019-03-11T15:33:56.795Z,100660.41
2019-03-11T15:36:33.154Z,100666.24
2019-03-11T15:38:55.035Z,100679.01
2019-03-11T15:41:23.283Z,100680.09
2019-03-11T15:43:51.554Z,100678.31
2019-03-11T15:46:19.801Z,100681.48
2019-03-11T15:48:48.054Z,100689.53
2019-03-11T15:51:16.324Z,100698.55
2019-03-11T15:53:44.593Z,100703.83
2019-03-11T15:59:24.189Z,100728.77
2019-03-11T16:01:52.464Z,100726.03
2019-03-11T16:04:20.738Z,100731.09
2019-03-11T16:06:49.005Z,100739.21
2019-03-11T16:09:19.669Z,100737.83
2019-03-11T16:11:47.259Z,100743.00
2019-03-11T16:14:15.519Z,100749.88
2019-03-11T16:16:43.807Z,100761.55
2019-03-11T16:19:12.054Z,100763.95
2019-03-11T16:21:40.319Z,100765.13
2019-03-11T16:24:08.611Z,100766.27
2019-03-11T16:26:36.869Z,100774.78
2019-03-11T16:29:05.140Z,100780.61
2019-03-11T16:31:33.396Z,100780.36
2019-03-11T16:34:01.680Z,100782.55
2019-03-11T16:36:29.923Z,100789.05
2019-03-11T16:38:58.204Z,100800.69
2019-03-11T16:41:26.449Z,100801.11
2019-03-11T16:43:54.713Z,100808.22
2019-03-11T16:46:22.989Z,100811.95
2019-03-11T16:48:51.262Z,100815.54
2019-03-11T16:51:19.531Z,100816.73
2019-03-11T16:53:47.826Z,100820.61
2019-03-11T16:56:16.082Z,100832.77
2019-03-11T16:58:44.355Z,100835.47
2019-03-11T17:04:01.653Z,100855.27
2019-03-11T17:06:29.922Z,100854.31
2019-03-11T17:08:58.172Z,100863.11
2019-03-11T17:11:26.438Z,100872.16
2019-03-11T17:13:54.688Z,100875.97
2019-03-11T17:16:22.962Z,100881.80
2019-03-11T17:18:51.216Z,100883.05
2019-03-11T17:21:19.469Z,100896.83
2019-03-11T17:23:47.738Z,100903.74
2019-03-11T17:26:16.006Z,100915.83
2019-03-11T17:28:44.274Z,100923.41
2019-03-11T17:31:12.543Z,100932.70
2019-03-11T17:33:41.799Z,100938.89
2019-03-11T17:36:10.071Z,100943.62
2019-03-11T17:38:38.340Z,100947.67
2019-03-11T17:41:06.591Z,100951.83
2019-03-11T17:43:34.862Z,100959.11
2019-03-11T17:48:52.249Z,100970.00
2019-03-11T17:51:20.508Z,100983.09
2019-03-11T17:53:48.773Z,100992.63
2019-03-11T17:56:17.020Z,100992.94
2019-03-11T17:58:45.290Z,101001.48
2019-03-11T18:01:13.556Z,100998.11
2019-03-11T18:03:41.827Z,101001.20
2019-03-11T18:06:11.848Z,101006.66
2019-03-11T18:08:40.063Z,101017.01
2019-03-11T18:11:08.318Z,101019.63
2019-03-11T18:13:36.655Z,101033.44
2019-03-11T18:16:04.932Z,101040.69
2019-03-11T18:19:04.696Z,101049.73
2019-03-11T18:21:32.958Z,101050.45
2019-03-11T18:24:01.214Z,101052.19
2019-03-11T18:26:29.486Z,101055.38
2019-03-11T18:28:57.759Z,101063.58
2019-03-11T18:31:26.013Z,101068.04
2019-03-11T18:33:54.269Z,101071.95
2019-03-11T18:36:22.544Z,101079.37
2019-03-11T18:38:50.893Z,101083.72
2019-03-11T18:41:19.162Z,101086.73
2019-03-11T18:43:47.420Z,101098.06
2019-03-11T18:46:15.668Z,101110.07
2019-03-11T18:48:43.934Z,101125.37
2019-03-11T18:54:32.023Z,101127.45
2019-03-11T18:57:00.295Z,101135.09
2019-03-11T18:59:28.569Z,101145.27
2019-03-11T19:02:16.202Z,101156.25
2019-03-11T19:04:44.472Z,101161.48
2019-03-11T19:07:12.757Z,101163.78
2019-03-11T19:09:41.046Z,101159.06
2019-03-11T19:12:09.321Z,101167.64
2019-03-11T19:14:37.760Z,101166.44
2019-03-11T19:17:06.175Z,101167.78
2019-03-11T19:19:45.731Z,101170.83
2019-03-11T19:22:04.561Z,101170.29
2019-03-11T19:24:32.820Z,101172.45
2019-03-11T19:27:01.088Z,101161.81
2019-03-11T19:29:29.385Z,101167.02
2019-03-11T19:31:57.634Z,101164.66
2019-03-11T19:34:25.932Z,101169.77
2019-03-11T19:36:54.209Z,101182.86
2019-03-11T19:39:22.620Z,101190.84
2019-03-11T19:41:50.881Z,101200.99
2019-03-11T19:44:19.196Z,101201.83
2019-03-11T19:46:47.491Z,101212.19
2019-03-11T19:49:15.761Z,101220.34
2019-03-11T19:51:44.010Z,101218.56
2019-03-11T19:54:12.292Z,101227.66
2019-03-11T19:56:40.581Z,101224.17
2019-03-11T19:59:08.829Z,101230.69
2019-03-11T20:01:37.115Z,101230.70
2019-03-11T20:04:05.370Z,101234.28
2019-03-11T20:06:33.691Z,101242.09
2019-03-11T20:09:01.958Z,101251.14
2019-03-11T20:11:32.621Z,101255.05
2019-03-11T20:14:00.916Z,101252.39
2019-03-11T20:16:29.174Z,101254.97
2019-03-11T20:18:57.469Z,101261.06
2019-03-11T20:21:25.707Z,101264.16
2019-03-11T20:23:54.002Z,101271.00
2019-03-11T20:26:22.278Z,101265.48
2019-03-11T20:28:50.537Z,101265.84
2019-03-11T20:31:19.110Z,101263.74
2019-03-11T20:33:47.514Z,101274.13
2019-03-11T20:36:20.951Z,101282.83
2019-03-11T20:38:45.783Z,101289.73
2019-03-11T20:41:14.017Z,101289.37
2019-03-11T20:43:42.746Z,101298.27
2019-03-11T20:46:11.029Z,101296.95
2019-03-11T20:48:39.297Z,101306.41
2019-03-11T20:51:07.572Z,101301.63
2019-03-11T20:53:35.836Z,101302.48
2019-03-11T20:56:04.157Z,101311.56
2019-03-11T20:58:32.447Z,101318.00
2019-03-11T21:01:00.747Z,101318.41
2019-03-11T21:03:29.027Z,101327.45
2019-03-11T21:06:16.670Z,101327.91
2019-03-11T21:08:45.803Z,101342.14
2019-03-11T21:11:14.944Z,101344.27
2019-03-11T21:13:43.746Z,101350.75
2019-03-11T21:16:11.972Z,101352.05
2019-03-11T21:18:40.246Z,101358.91
2019-03-11T21:21:08.488Z,101364.95
2019-03-11T21:23:36.772Z,101366.66
2019-03-11T21:26:05.128Z,101368.81
2019-03-11T21:28:33.411Z,101364.52
2019-03-11T21:31:01.725Z,101361.45
2019-03-11T21:33:30.035Z,101374.82
2019-03-11T21:35:58.268Z,101380.83
2019-03-11T21:38:26.572Z,101374.93
2019-03-11T21:40:54.890Z,101384.72
2019-03-11T21:43:23.221Z,101375.73
2019-03-11T21:45:51.478Z,101365.39
2019-03-11T21:48:19.737Z,101376.64
2019-03-11T21:50:48.049Z,101373.13
2019-03-11T21:53:16.320Z,101370.48
2019-03-11T21:55:44.537Z,101368.81
2019-03-11T21:58:13.792Z,101370.55
2019-03-11T22:00:42.793Z,101385.28
2019-03-11T22:03:11.060Z,101387.00
2019-03-11T22:05:39.335Z,101396.13
2019-03-11T22:08:07.601Z,101412.08
2019-03-11T22:11:07.589Z,101412.97
2019-03-11T22:13:35.838Z,101415.15
2019-03-11T22:16:04.150Z,101420.70
2019-03-11T22:18:32.398Z,101420.70
2019-03-11T22:21:00.666Z,101422.79
2019-03-11T22:23:28.942Z,101429.30
2019-03-11T22:25:57.204Z,101430.23
2019-03-11T22:28:25.455Z,101438.48
2019-03-11T22:30:53.722Z,101430.73
2019-03-11T22:33:21.980Z,101421.70
2019-03-11T22:35:50.266Z,101428.67
2019-03-11T22:38:18.517Z,101431.31
2019-03-11T22:40:46.798Z,101439.48
2019-03-11T22:43:15.060Z,101447.66
2019-03-11T22:45:43.332Z,101437.80
2019-03-11T22:48:11.604Z,101431.34
2019-03-11T22:50:39.874Z,101437.39
2019-03-11T22:53:08.140Z,101446.89
2019-03-11T22:55:38.965Z,101455.53
2019-03-11T22:58:06.392Z,101448.66
2019-03-11T23:01:06.265Z,101461.97
2019-03-11T23:03:34.547Z,101478.78
2019-03-11T23:06:02.900Z,101486.89
2019-03-11T23:08:31.275Z,101490.75
2019-03-11T23:10:59.545Z,101488.19
2019-03-11T23:13:27.808Z,101498.92
2019-03-11T23:15:56.077Z,101507.50
2019-03-11T23:18:24.346Z,101514.80
2019-03-11T23:20:52.622Z,101522.52
2019-03-11T23:23:20.897Z,101520.79
2019-03-11T23:25:49.153Z,101518.22
2019-03-11T23:28:30.504Z,101528.09
2019-03-11T23:30:58.778Z,101525.08
2019-03-11T23:33:27.062Z,101522.92
2019-03-11T23:35:55.343Z,101534.47
2019-03-11T23:38:23.605Z,101531.50
2019-03-11T23:40:51.889Z,101532.80
2019-03-11T23:43:20.148Z,101528.03
2019-03-11T23:45:48.415Z,101529.78
2019-03-11T23:48:16.692Z,101524.59
2019-03-11T23:50:44.977Z,101520.30
2019-03-11T23:53:13.244Z,101517.69
2019-03-11T23:55:41.528Z,101522.86
2019-03-11T23:58:09.808Z,101517.27
